»·PEaware :: N583SC KSEE-KCNO

N583SC :: KSEE-KCNO

FLIGHT INFORMATION

Flight Status: Arrived
Operator: Privately registered:
United States
More flights under this callsign
Pilot: Scott G. (88)
Aircraft: CESSNA 172 SKYHAWK
(C172)
More flights by this aircraft type
Origin: KSEE Gillespie
United States
Destination: KCNO Chino
United States
More flights between these airports :: More routes between these airports
Route: +JLI
File this flight plan on PilotEdge
Remarks:
Altitude:
(Current/Filed)
0ft
Speed:
(Current/Filed)
0kts
Departed: 26-Nov-18 05:14 PM
Arrived: 26-Nov-18 06:09 PM
Distance/Time
Traveled:
77nm/0:54
Distance/Time
To Go:
Arrived

Flight Plot

Page will automatically refresh every two minutes.

Flight plan parsing failed; only flown route is shown


Map Options




Map Legend


Flown Route
Filed Route
Departure Airport
Arrival Airport
Navaid (VOR, NDB)
Fix

Horizontal Profiles

Position Reports

Time Latitude Longitude Heading Altitude Ground
Speed
26-Nov-18 17:07 32.825300 -116.970310 278 392ft 0kts
26-Nov-18 17:08 32.825300 -116.970310 278 392ft 0kts
26-Nov-18 17:09 32.825300 -116.970310 278 392ft 0kts
26-Nov-18 17:10 32.825726 -116.970270 95 392ft 11kts
26-Nov-18 17:11 32.825435 -116.967740 329 392ft 0kts
26-Nov-18 17:12 32.825435 -116.967740 329 392ft 0kts
26-Nov-18 17:13 32.825435 -116.967740 329 392ft 0kts
26-Nov-18 17:14 32.825435 -116.967740 329 392ft 0kts
26-Nov-18 17:15 32.825435 -116.967740 329 392ft 0kts
26-Nov-18 17:16 32.825855 -116.967834 326 392ft 2kts
26-Nov-18 17:17 32.827226 -116.978331 282 696ft 64kts
26-Nov-18 17:18 32.817233 -116.979928 109 1511ft 84kts
26-Nov-18 17:19 32.809679 -116.955820 108 2276ft 83kts
26-Nov-18 17:20 32.800770 -116.929536 112 3010ft 90kts
26-Nov-18 17:21 32.789944 -116.902037 113 3619ft 106kts
26-Nov-18 17:22 32.781447 -116.875193 108 3727ft 118kts
26-Nov-18 17:23 32.772939 -116.839539 58 3553ft 125kts
26-Nov-18 17:24 32.795671 -116.827158 3 3503ft 110kts
26-Nov-18 17:25 32.822821 -116.819683 18 3475ft 113kts
26-Nov-18 17:26 32.851849 -116.806408 13 3553ft 109kts
26-Nov-18 17:27 32.881004 -116.795753 19 3650ft 109kts
26-Nov-18 17:28 32.903401 -116.780790 33 4323ft 85kts
26-Nov-18 17:29 32.923761 -116.765480 37 4897ft 87kts
26-Nov-18 17:30 32.944725 -116.754222 355 5509ft 90kts
26-Nov-18 17:31 32.968804 -116.765089 336 6067ft 95kts
26-Nov-18 17:32 32.988824 -116.778288 338 6550ft 94kts
26-Nov-18 17:33 33.012903 -116.790104 343 7078ft 94kts
26-Nov-18 17:34 33.040886 -116.803861 344 6826ft 112kts
26-Nov-18 17:35 33.070511 -116.815372 349 6581ft 113kts
26-Nov-18 17:36 33.098608 -116.834538 322 6584ft 122kts
26-Nov-18 17:37 33.115228 -116.852305 321 6555ft 124kts
26-Nov-18 17:38 33.139817 -116.880697 324 6556ft 122kts
26-Nov-18 17:39 33.166593 -116.903123 329 6650ft 118kts
26-Nov-18 17:40 33.194166 -116.925835 328 6639ft 121kts
26-Nov-18 17:41 33.222832 -116.947873 328 6590ft 124kts
26-Nov-18 17:42 33.251236 -116.971656 324 6549ft 125kts
26-Nov-18 17:43 33.278495 -116.997945 321 6514ft 126kts
26-Nov-18 17:44 33.306741 -117.022694 328 6496ft 125kts
26-Nov-18 17:45 33.335414 -117.045143 323 6553ft 116kts
26-Nov-18 17:46 33.363165 -117.064237 334 6518ft 116kts
26-Nov-18 17:47 33.391609 -117.082193 330 6488ft 116kts
26-Nov-18 17:48 33.420444 -117.100227 336 6450ft 117kts
26-Nov-18 17:49 33.447957 -117.120148 320 6468ft 115kts
26-Nov-18 17:50 33.472104 -117.144995 320 6568ft 113kts
26-Nov-18 17:51 33.496062 -117.169683 321 6669ft 113kts
26-Nov-18 17:52 33.522010 -117.192966 329 6505ft 124kts
26-Nov-18 17:53 33.552133 -117.215611 328 6102ft 128kts
26-Nov-18 17:54 33.581692 -117.239207 327 5701ft 127kts
26-Nov-18 17:55 33.609909 -117.262418 326 5295ft 118kts
26-Nov-18 17:56 33.636523 -117.284607 326 4893ft 116kts
26-Nov-18 17:57 33.663047 -117.306869 326 4487ft 115kts
26-Nov-18 17:58 33.690156 -117.329693 325 3904ft 121kts
26-Nov-18 17:59 33.717928 -117.353127 325 3299ft 122kts
26-Nov-18 18:00 33.745018 -117.376054 325 2963ft 118kts
26-Nov-18 18:01 33.771323 -117.398341 326 2723ft 114kts
26-Nov-18 18:02 33.792465 -117.427700 311 2730ft 117kts
26-Nov-18 18:03 33.812665 -117.459176 311 2722ft 120kts
26-Nov-18 18:04 33.832804 -117.492493 296 2640ft 128kts
26-Nov-18 18:05 33.856972 -117.523397 320 2532ft 126kts
26-Nov-18 18:06 33.882041 -117.548397 320 2338ft 132kts
26-Nov-18 18:07 33.911945 -117.578794 317 1525ft 137kts
26-Nov-18 18:08 33.939178 -117.601383 355 1580ft 83kts
26-Nov-18 18:09 33.962526 -117.600860 11 1578ft 83kts
26-Nov-18 18:10 33.978146 -117.602658 237 1156ft 63kts
26-Nov-18 18:11 33.975560 -117.623435 264 836ft 60kts
26-Nov-18 18:12 33.975922 -117.638996 316 653ft 7kts
26-Nov-18 18:13 33.976525 -117.639225 356 653ft 0kts
26-Nov-18 18:14 33.976525 -117.639225 356 653ft 0kts
26-Nov-18 18:15 33.976525 -117.639225 356 653ft 0kts
26-Nov-18 18:16 33.976525 -117.639225 356 653ft 0kts
26-Nov-18 18:17 33.977367 -117.636912 142 653ft 0kts

Navigation Log

Ident Type
Flight plan parsing failed, navigation log unavailable